PWSweather.com
Personal Weather Stations
Station Observations
PWSLORIS
The Farm At Fox Bay, Loris, SC 29569

The Farm At Fox BayLoris, SC 29569

Lat: 34.067097, Lon: -78.86907

Elevation: 108

Station Type: Davis Vantage Pro2 with 24 hr. FARS and solar

http://www.lorisweather.com

High Low Average
Temperature 86.9°F30.5°C 71.1°F21.7°C 79.1°F26.2°C
Dew Point 78.7°F25.9°C 66.0°F18.9°C 73.6°F23.1°C
Winds 9.2 mph 14.8 kmh Calm Calm 2.0 mph S3.2 kmh S
Wind Gusts 12.7 mph20.4 kmh -- 3.0 mph4.8 kmh
Humidity 97% 61% 84%
Pressure 29.87 in1011.5 mb 29.67 in1004.7 mb -
Precipitation 1.46 in37.1 mm - -
Hour Temp Dew Point Humidity Winds Wind Gusts Pressure Precip Precip Rate Daily Precip Total
12:00 AM 77.3°F25.2°C 76.1°F24.5°C 96% Calm Calm -- 29.72 in1006.4 mb - 0.00 in0.0 mm 0.01 in0.3 mm
12:15 AM 77.0°F25.0°C 75.8°F24.3°C 96% Calm Calm -- 29.71 in1006.1 mb - 0.00 in0.0 mm 0.01 in0.3 mm
12:30 AM 77.0°F25.0°C 75.8°F24.3°C 96% Calm Calm -- 29.71 in1006.1 mb - 0.00 in0.0 mm 0.01 in0.3 mm
12:45 AM 76.9°F24.9°C 75.4°F24.1°C 95% Calm Calm -- 29.71 in1006.1 mb - 0.00 in0.0 mm 0.01 in0.3 mm
01:00 AM 77.1°F25.1°C 75.2°F24.0°C 94% Calm Calm -- 29.70 in1005.8 mb - 0.00 in0.0 mm 0.01 in0.3 mm
01:15 AM 77.1°F25.1°C 74.9°F23.8°C 93% Calm Calm -- 29.70 in1005.8 mb - 0.00 in0.0 mm 0.01 in0.3 mm
01:30 AM 77.2°F25.1°C 74.7°F23.7°C 92% Calm Calm -- 29.70 in1005.8 mb - 0.00 in0.0 mm 0.01 in0.3 mm
01:45 AM 77.4°F25.2°C 74.8°F23.8°C 92% Calm Calm -- 29.69 in1005.4 mb - 0.00 in0.0 mm 0.01 in0.3 mm
02:00 AM 77.7°F25.4°C 74.9°F23.8°C 91% Calm Calm 1.2 mph1.9 kmh 29.69 in1005.4 mb - 0.00 in0.0 mm 0.01 in0.3 mm
02:15 AM 77.7°F25.4°C 74.9°F23.8°C 91% Calm Calm -- 29.68 in1005.1 mb - 0.00 in0.0 mm 0.01 in0.3 mm
02:30 AM 77.7°F25.4°C 74.9°F23.8°C 91% Calm Calm -- 29.68 in1005.1 mb - 0.00 in0.0 mm 0.01 in0.3 mm
02:45 AM 77.8°F25.4°C 75.0°F23.9°C 91% Calm Calm -- 29.68 in1005.1 mb - 0.00 in0.0 mm 0.01 in0.3 mm
03:00 AM 77.9°F25.5°C 75.1°F23.9°C 91% Calm Calm -- 29.67 in1004.7 mb - 0.00 in0.0 mm 0.01 in0.3 mm
03:15 AM 77.9°F25.5°C 75.1°F23.9°C 91% Calm Calm -- 29.68 in1005.1 mb - 0.00 in0.0 mm 0.01 in0.3 mm
03:30 AM 76.4°F24.7°C 73.9°F23.3°C 92% 3.5 mph SE5.6 kmh SE 8.1 mph13.0 kmh 29.69 in1005.4 mb - 0.61 in15.5 mm 0.62 in15.7 mm
03:45 AM 75.1°F23.9°C 73.3°F22.9°C 94% Calm Calm -- 29.68 in1005.1 mb - 0.09 in2.3 mm 0.68 in17.3 mm
04:00 AM 75.1°F23.9°C 73.6°F23.1°C 95% Calm Calm -- 29.68 in1005.1 mb - 0.01 in0.3 mm 0.69 in17.5 mm
04:15 AM 75.4°F24.1°C 74.1°F23.4°C 96% Calm Calm 1.2 mph1.9 kmh 29.67 in1004.7 mb - 0.00 in0.0 mm 0.69 in17.5 mm
04:30 AM 75.4°F24.1°C 74.2°F23.4°C 96% Calm Calm -- 29.67 in1004.7 mb - 0.00 in0.0 mm 0.69 in17.5 mm
04:45 AM 75.3°F24.1°C 74.1°F23.4°C 96% Calm Calm -- 29.67 in1004.7 mb - 0.00 in0.0 mm 0.69 in17.5 mm
05:00 AM 75.5°F24.2°C 74.6°F23.7°C 97% Calm Calm -- 29.67 in1004.7 mb - 0.00 in0.0 mm 0.69 in17.5 mm
05:15 AM 75.7°F24.3°C 74.8°F23.8°C 97% Calm Calm -- 29.67 in1004.7 mb - 0.00 in0.0 mm 0.69 in17.5 mm
05:30 AM 75.9°F24.4°C 75.0°F23.9°C 97% Calm Calm -- 29.68 in1005.1 mb - 0.00 in0.0 mm 0.69 in17.5 mm
05:45 AM 76.1°F24.5°C 75.2°F24.0°C 97% Calm Calm -- 29.68 in1005.1 mb - 0.00 in0.0 mm 0.69 in17.5 mm
06:00 AM 76.2°F24.6°C 75.3°F24.1°C 97% Calm Calm -- 29.68 in1005.1 mb - 0.00 in0.0 mm 0.69 in17.5 mm
06:15 AM 76.5°F24.7°C 75.6°F24.2°C 97% Calm Calm -- 29.68 in1005.1 mb - 0.00 in0.0 mm 0.69 in17.5 mm
06:30 AM 76.6°F24.8°C 75.7°F24.3°C 97% Calm Calm -- 29.68 in1005.1 mb - 0.00 in0.0 mm 0.69 in17.5 mm
06:45 AM 76.8°F24.9°C 75.9°F24.4°C 97% Calm Calm -- 29.68 in1005.1 mb - 0.00 in0.0 mm 0.69 in17.5 mm
07:00 AM 77.0°F25.0°C 76.1°F24.5°C 97% Calm Calm 2.3 mph3.7 kmh 29.68 in1005.1 mb - 0.00 in0.0 mm 0.69 in17.5 mm
07:15 AM 77.3°F25.2°C 76.4°F24.7°C 97% Calm Calm -- 29.69 in1005.4 mb - 0.00 in0.0 mm 0.69 in17.5 mm
07:30 AM 77.8°F25.4°C 76.9°F24.9°C 97% Calm Calm -- 29.69 in1005.4 mb - 0.00 in0.0 mm 0.69 in17.5 mm
07:45 AM 78.2°F25.7°C 77.0°F25.0°C 96% Calm Calm 1.2 mph1.9 kmh 29.69 in1005.4 mb - 0.00 in0.0 mm 0.69 in17.5 mm
08:00 AM 78.5°F25.8°C 76.9°F24.9°C 95% Calm Calm -- 29.69 in1005.4 mb - 0.00 in0.0 mm 0.69 in17.5 mm
08:15 AM 79.1°F26.2°C 77.2°F25.1°C 94% Calm Calm -- 29.68 in1005.1 mb - 0.00 in0.0 mm 0.69 in17.5 mm
08:30 AM 81.9°F27.7°C 78.7°F25.9°C 90% Calm Calm -- 29.68 in1005.1 mb - 0.00 in0.0 mm 0.69 in17.5 mm
08:45 AM 80.6°F27.0°C 77.4°F25.2°C 90% Calm Calm -- 29.68 in1005.1 mb - 0.00 in0.0 mm 0.69 in17.5 mm
09:00 AM 80.0°F26.7°C 77.2°F25.1°C 91% Calm Calm -- 29.68 in1005.1 mb - 0.00 in0.0 mm 0.69 in17.5 mm
09:15 AM 80.7°F27.1°C 77.8°F25.4°C 91% 1.2 mph WSW1.9 kmh WSW 8.1 mph13.0 kmh 29.68 in1005.1 mb - 0.00 in0.0 mm 0.69 in17.5 mm
09:30 AM 80.9°F27.2°C 77.7°F25.4°C 90% Calm Calm -- 29.68 in1005.1 mb - 0.00 in0.0 mm 0.69 in17.5 mm
09:45 AM 81.4°F27.4°C 77.8°F25.4°C 89% 2.3 mph WNW3.7 kmh WNW 6.9 mph11.1 kmh 29.68 in1005.1 mb - 0.00 in0.0 mm 0.69 in17.5 mm
10:00 AM 80.5°F26.9°C 77.3°F25.2°C 90% 1.2 mph WSW1.9 kmh WSW 3.5 mph5.6 kmh 29.68 in1005.1 mb - 0.00 in0.0 mm 0.69 in17.5 mm
10:15 AM 80.5°F26.9°C 77.6°F25.3°C 91% Calm Calm -- 29.68 in1005.1 mb - 0.00 in0.0 mm 0.69 in17.5 mm
10:30 AM 80.2°F26.8°C 77.3°F25.2°C 91% 1.2 mph NNW1.9 kmh NNW 4.6 mph7.4 kmh 29.68 in1005.1 mb - 0.00 in0.0 mm 0.69 in17.5 mm
10:45 AM 78.6°F25.9°C 74.8°F23.8°C 88% 3.5 mph NW5.6 kmh NW 6.9 mph11.1 kmh 29.69 in1005.4 mb - 0.00 in0.0 mm 0.69 in17.5 mm
11:00 AM 75.8°F24.3°C 73.3°F22.9°C 92% Calm Calm -- 29.69 in1005.4 mb - 0.40 in10.2 mm 1.09 in27.7 mm
11:15 AM 74.6°F23.7°C 73.1°F22.8°C 95% Calm Calm -- 29.68 in1005.1 mb - 0.25 in6.4 mm 1.33 in33.8 mm
11:30 AM 74.3°F23.5°C 73.1°F22.8°C 96% Calm Calm -- 29.70 in1005.8 mb - 0.08 in2.0 mm 1.40 in35.6 mm
11:45 AM 74.4°F23.6°C 73.5°F23.1°C 97% Calm Calm -- 29.69 in1005.4 mb - 0.05 in1.3 mm 1.44 in36.6 mm
12:00 PM 75.4°F24.1°C 74.5°F23.6°C 97% Calm Calm -- 29.68 in1005.1 mb - 0.02 in0.5 mm 1.46 in37.1 mm
12:15 PM 77.8°F25.4°C 76.8°F24.9°C 97% Calm Calm -- 29.69 in1005.4 mb - 0.00 in0.0 mm 1.46 in37.1 mm
12:30 PM 79.1°F26.2°C 76.9°F24.9°C 93% 4.6 mph NNW7.4 kmh NNW 8.1 mph13.0 kmh 29.69 in1005.4 mb - 0.00 in0.0 mm 1.46 in37.1 mm
12:45 PM 80.4°F26.9°C 77.2°F25.1°C 90% 2.3 mph NNW3.7 kmh NNW 3.5 mph5.6 kmh 29.68 in1005.1 mb - 0.00 in0.0 mm 1.46 in37.1 mm
01:00 PM 81.5°F27.5°C 77.6°F25.3°C 88% 2.3 mph W3.7 kmh W 4.6 mph7.4 kmh 29.68 in1005.1 mb - 0.00 in0.0 mm 1.46 in37.1 mm
01:15 PM 83.6°F28.7°C 78.6°F25.9°C 85% Calm Calm -- 29.68 in1005.1 mb - 0.00 in0.0 mm 1.46 in37.1 mm
01:30 PM 82.7°F28.2°C 77.7°F25.4°C 85% 1.2 mph SW1.9 kmh SW 1.2 mph1.9 kmh 29.69 in1005.4 mb - 0.00 in0.0 mm 1.46 in37.1 mm
01:45 PM 82.3°F27.9°C 77.7°F25.4°C 86% 1.2 mph NNE1.9 kmh NNE 3.5 mph5.6 kmh 29.70 in1005.8 mb - 0.00 in0.0 mm 1.46 in37.1 mm
02:00 PM 83.2°F28.4°C 76.4°F24.7°C 80% 5.8 mph N9.3 kmh N 10.4 mph16.7 kmh 29.70 in1005.8 mb - 0.00 in0.0 mm 1.46 in37.1 mm
02:15 PM 84.4°F29.1°C 76.0°F24.4°C 76% 5.8 mph NNE9.3 kmh NNE 10.4 mph16.7 kmh 29.70 in1005.8 mb - 0.00 in0.0 mm 1.46 in37.1 mm
02:30 PM 85.6°F29.8°C 74.3°F23.5°C 69% 5.8 mph N9.3 kmh N 6.9 mph11.1 kmh 29.70 in1005.8 mb - 0.00 in0.0 mm 1.46 in37.1 mm
02:45 PM 85.5°F29.7°C 73.7°F23.2°C 68% 5.8 mph N9.3 kmh N 9.2 mph14.8 kmh 29.70 in1005.8 mb - 0.00 in0.0 mm 1.46 in37.1 mm
03:00 PM 86.9°F30.5°C 74.6°F23.7°C 67% 6.9 mph N11.1 kmh N 10.4 mph16.7 kmh 29.70 in1005.8 mb - 0.00 in0.0 mm 1.46 in37.1 mm
03:15 PM 86.6°F30.3°C 74.4°F23.6°C 67% 8.1 mph N13.0 kmh N 11.5 mph18.5 kmh 29.70 in1005.8 mb - 0.00 in0.0 mm 1.46 in37.1 mm
03:30 PM 86.4°F30.2°C 74.1°F23.4°C 67% 5.8 mph N9.3 kmh N 8.1 mph13.0 kmh 29.70 in1005.8 mb - 0.00 in0.0 mm 1.46 in37.1 mm
03:45 PM 86.3°F30.2°C 71.3°F21.8°C 61% 5.8 mph N9.3 kmh N 9.2 mph14.8 kmh 29.70 in1005.8 mb - 0.00 in0.0 mm 1.46 in37.1 mm
04:00 PM 86.6°F30.3°C 72.0°F22.2°C 62% 4.6 mph N7.4 kmh N 6.9 mph11.1 kmh 29.70 in1005.8 mb - 0.00 in0.0 mm 1.46 in37.1 mm
04:15 PM 86.7°F30.4°C 72.6°F22.6°C 63% 5.8 mph N9.3 kmh N 5.8 mph9.3 kmh 29.70 in1005.8 mb - 0.00 in0.0 mm 1.46 in37.1 mm
04:30 PM 86.5°F30.3°C 73.3°F22.9°C 65% 1.2 mph NW1.9 kmh NW 3.5 mph5.6 kmh 29.70 in1005.8 mb - 0.00 in0.0 mm 1.46 in37.1 mm
04:45 PM 86.5°F30.3°C 71.9°F22.2°C 62% 4.6 mph NNW7.4 kmh NNW 5.8 mph9.3 kmh 29.70 in1005.8 mb - 0.00 in0.0 mm 1.46 in37.1 mm
05:00 PM 86.5°F30.3°C 72.4°F22.4°C 63% 2.3 mph NW3.7 kmh NW 5.8 mph9.3 kmh 29.70 in1005.8 mb - 0.00 in0.0 mm 1.46 in37.1 mm
05:15 PM 86.5°F30.3°C 71.9°F22.2°C 62% 2.3 mph N3.7 kmh N 3.5 mph5.6 kmh 29.70 in1005.8 mb - 0.00 in0.0 mm 1.46 in37.1 mm
05:30 PM 86.2°F30.1°C 71.6°F22.0°C 62% 3.5 mph N5.6 kmh N 5.8 mph9.3 kmh 29.70 in1005.8 mb - 0.00 in0.0 mm 1.46 in37.1 mm
05:45 PM 86.1°F30.1°C 72.0°F22.2°C 63% 2.3 mph N3.7 kmh N 3.5 mph5.6 kmh 29.71 in1006.1 mb - 0.00 in0.0 mm 1.46 in37.1 mm
06:00 PM 85.7°F29.8°C 72.1°F22.3°C 64% 1.2 mph N1.9 kmh N 5.8 mph9.3 kmh 29.71 in1006.1 mb - 0.00 in0.0 mm 1.46 in37.1 mm
06:15 PM 84.5°F29.2°C 71.4°F21.9°C 65% 2.3 mph NNE3.7 kmh NNE 6.9 mph11.1 kmh 29.73 in1006.8 mb - 0.00 in0.0 mm 1.46 in37.1 mm
06:30 PM 83.2°F28.4°C 71.9°F22.2°C 69% Calm Calm -- 29.75 in1007.5 mb - 0.00 in0.0 mm 1.46 in37.1 mm
06:45 PM 82.5°F28.1°C 71.7°F22.1°C 70% Calm Calm 4.6 mph7.4 kmh 29.75 in1007.5 mb - 0.00 in0.0 mm 1.46 in37.1 mm
07:00 PM 82.0°F27.8°C 71.2°F21.8°C 70% Calm Calm 3.5 mph5.6 kmh 29.77 in1008.1 mb - 0.00 in0.0 mm 1.46 in37.1 mm
07:15 PM 80.9°F27.2°C 70.6°F21.4°C 71% Calm Calm -- 29.78 in1008.5 mb - 0.00 in0.0 mm 1.46 in37.1 mm
07:30 PM 79.7°F26.5°C 70.6°F21.4°C 74% Calm Calm -- 29.79 in1008.8 mb - 0.00 in0.0 mm 1.46 in37.1 mm
07:45 PM 79.0°F26.1°C 70.8°F21.6°C 76% Calm Calm -- 29.80 in1009.1 mb - 0.00 in0.0 mm 1.46 in37.1 mm
08:00 PM 78.5°F25.8°C 70.3°F21.3°C 76% 3.5 mph N5.6 kmh N 4.6 mph7.4 kmh 29.81 in1009.5 mb - 0.00 in0.0 mm 1.46 in37.1 mm
08:15 PM 78.3°F25.7°C 69.3°F20.7°C 74% 3.5 mph NNE5.6 kmh NNE 3.5 mph5.6 kmh 29.82 in1009.8 mb - 0.00 in0.0 mm 1.46 in37.1 mm
08:30 PM 78.0°F25.6°C 69.4°F20.8°C 75% 3.5 mph NE5.6 kmh NE 6.9 mph11.1 kmh 29.82 in1009.8 mb - 0.00 in0.0 mm 1.46 in37.1 mm
08:45 PM 77.7°F25.4°C 68.7°F20.4°C 74% 2.3 mph NE3.7 kmh NE 8.1 mph13.0 kmh 29.82 in1009.8 mb - 0.00 in0.0 mm 1.46 in37.1 mm
09:00 PM 77.0°F25.0°C 68.9°F20.5°C 76% 2.3 mph NE3.7 kmh NE 3.5 mph5.6 kmh 29.83 in1010.2 mb - 0.00 in0.0 mm 1.46 in37.1 mm
09:15 PM 76.1°F24.5°C 68.3°F20.2°C 77% 2.3 mph NNE3.7 kmh NNE 3.5 mph5.6 kmh 29.83 in1010.2 mb - 0.00 in0.0 mm 1.46 in37.1 mm
09:30 PM 75.5°F24.2°C 68.2°F20.1°C 78% 5.8 mph NE9.3 kmh NE 10.4 mph16.7 kmh 29.84 in1010.5 mb - 0.00 in0.0 mm 1.46 in37.1 mm
09:45 PM 75.1°F23.9°C 67.8°F19.9°C 78% 4.6 mph NNE7.4 kmh NNE 10.4 mph16.7 kmh 29.85 in1010.8 mb - 0.00 in0.0 mm 1.46 in37.1 mm
10:00 PM 74.6°F23.7°C 67.3°F19.6°C 78% 8.1 mph NE13.0 kmh NE 12.7 mph20.4 kmh 29.85 in1010.8 mb - 0.00 in0.0 mm 1.46 in37.1 mm
10:15 PM 74.1°F23.4°C 66.8°F19.3°C 78% 3.5 mph NNE5.6 kmh NNE 9.2 mph14.8 kmh 29.85 in1010.8 mb - 0.00 in0.0 mm 1.46 in37.1 mm
10:30 PM 73.5°F23.1°C 66.6°F19.2°C 79% 9.2 mph NE14.8 kmh NE 12.7 mph20.4 kmh 29.86 in1011.2 mb - 0.00 in0.0 mm 1.46 in37.1 mm
10:45 PM 73.1°F22.8°C 66.6°F19.2°C 80% 1.2 mph N1.9 kmh N 4.6 mph7.4 kmh 29.86 in1011.2 mb - 0.00 in0.0 mm 1.46 in37.1 mm
11:00 PM 72.5°F22.5°C 66.3°F19.1°C 81% 3.5 mph N5.6 kmh N 4.6 mph7.4 kmh 29.86 in1011.2 mb - 0.00 in0.0 mm 1.51 in38.4 mm
11:15 PM 71.8°F22.1°C 66.4°F19.1°C 83% 2.3 mph NNE3.7 kmh NNE 6.9 mph11.1 kmh 29.86 in1011.2 mb - 0.00 in0.0 mm 1.51 in38.4 mm
11:30 PM 71.4°F21.9°C 66.3°F19.1°C 84% 1.2 mph NNE1.9 kmh NNE 3.5 mph5.6 kmh 29.86 in1011.2 mb - 0.00 in0.0 mm 1.51 in38.4 mm
11:45 PM 71.1°F21.7°C 66.0°F18.9°C 84% Calm Calm 6.9 mph11.1 kmh 29.87 in1011.5 mb - 0.00 in0.0 mm 1.51 in38.4 mm